Soap Lake, WA

6:30 PM PST on February 11, 2016 (GMT -0800)
Adrian | | Change Station
CLOSE
Current Station
Personal Weather Station
Location: Soap Lake, WA
Elevation: 1201 ft
Nearby Weather Stations
Active Advisory: Air Stagnation Advisory

Elev 1201 ft 47.39 °N, 119.38 °W | Updated 25 seconds ago

Overcast
Overcast
42.4 °F
Feels Like 42 °F
N
0.0
Wind Variable Wind from East
Gusts 0.0 mph

Today
High -- | Low -- °F
--% Chance of Precip.
Yesterday
High -- | Low -- °F
Precip. -- in
Pressure 30.27 in
Visibility 10.0 miles
Clouds Overcast 6500 ft
Windchill 42 °F
Dew Point 37 °F
Humidity 80%
Rainfall 0.00 in
Snow Depth Not available.
7:10 AM 5:14 PM
Waxing Crescent, 16% visible
METAR KEPH 120153Z AUTO 33007KT 10SM OVC065 05/03 A3024 RMK AO2 RAE29 SLP249 P0000 T00500028
Pressure 30.27 in
Visibility 10.0 miles
Clouds Overcast 6500 ft
Windchill 42 °F
Dew Point 37 °F
Humidity 80%
Rainfall 0.00 in
Snow Depth Not available.
7:10 AM 5:14 PM
Waxing Crescent, 16% visible
METAR KEPH 120153Z AUTO 33007KT 10SM OVC065 05/03 A3024 RMK AO2 RAE29 SLP249 P0000 T00500028

10-Day Weather Forecast

Almanac

Astronomy

Feb. 11, 2016 Rise Set
Actual Time
Civil Twilight
Nautical Twilight
Astronomical Twilight
Moon
Length of Visible Light
Length of Day
Tomorrow will be .
, % of the Moon is Illuminated

Today's Extremes

State Highs State Lows

Community

WunderPhotos

Upload Photos

1,892,226 photos uploaded!

WunderBlog® & News

Nearby

Air Quality

  Air Quality AQ Index Pollutant
Not available.

Snow Depth

Station Depth Elevation

Earthquake Activity

City Distance Mag. Time & Date
Minimum magnitude displayed is 2.5.

Coastal Water Temperatures

Place Temperature

Stations

Nearby Weather Stations

Station Location Temp. Windchill Dew Point Humidity Wind Precip. Elev Updated Type
                   

Watches & Warnings

Air Stagnation Advisory
Issued: 2:31 PM PST Feb. 11, 2016 – National Weather Service

... Air stagnation advisory remains in effect until 10 am PST
Saturday...

* air quality... light winds and temperature inversions will
heighten the potential for elevated pollution levels in central
and northeast Washington through Saturday morning. Weak weather
disturbances will pass through the area Thursday night and may
slightly improve the situation. A stronger cold front passage
late Friday into Saturday is expected to end the stagnant
conditions.

* Impacts... burn bans may be in effect for your area. Please
consult your state or tribal authorities before burning.

* Locations... a few communities included in the air stagnation
advisory are Ritzville... Moses Lake... Grand Coulee... Colville
... and Wenatchee.

Precautionary/preparedness actions...

An air stagnation advisory indicates that due to limited movement
of an air mass across the advisory area... pollution has the
potential to increase to dangerous levels. Persons with
respiratory illness should follow their physicians advice for
dealing with high levels of air pollution.